< Typhoon 197117 1971 Season Typhoon 197119 >
Typhoon 197118 (NADINE)
General InformationTrack Information on Google Maps || Disaster Info.ResourceGoogle EarthGE AnimationAtom FeedGeoJSON
Detalied Best Track (Time Zone = UTC)
Year Month Day Hour Lat. Long. Pressure (hPa) Wind (kt) Class Image Chart
1971 7 19 00 11.2 143.5 1008 0 2 -- Chart
1971 7 19 06 11.6 142.9 1006 0 2 -- Chart
1971 7 19 12 12.2 142.4 1004 0 2 -- Chart
1971 7 19 18 12.7 142.0 1004 0 2 -- Chart
1971 7 20 00 13.4 141.6 1004 0 2 -- Chart
1971 7 20 06 14.2 141.2 1002 0 2 -- Chart
1971 7 20 12 14.5 140.5 1000 0 2 -- Chart
1971 7 20 18 14.7 139.5 1000 0 2 -- Chart
1971 7 21 00 15.2 138.5 1000 0 2 -- Chart
1971 7 21 06 15.5 137.5 985 0 9 -- Chart
1971 7 21 12 15.7 136.7 980 0 9 -- Chart
1971 7 21 18 16.0 135.9 975 0 9 -- Chart
1971 7 22 00 16.3 135.4 975 0 9 -- Chart
1971 7 22 06 16.5 134.6 965 0 9 -- Chart
1971 7 22 12 16.9 134.0 960 0 9 -- Chart
1971 7 22 18 17.2 133.5 955 0 9 -- Chart
1971 7 23 00 17.5 132.8 945 0 9 -- Chart
1971 7 23 06 18.0 131.7 930 0 9 -- Chart
1971 7 23 12 18.3 130.7 915 0 9 -- Chart
1971 7 23 18 18.7 129.8 905 0 9 -- Chart
1971 7 24 00 19.2 128.6 905 0 9 -- Chart
1971 7 24 06 19.6 127.6 900 0 9 -- Chart
1971 7 24 12 20.0 126.8 900 0 9 -- Chart
1971 7 24 18 20.5 125.5 910 0 9 -- Chart
1971 7 25 00 21.0 124.5 925 0 9 -- Chart
1971 7 25 06 22.0 123.6 930 0 9 -- Chart
1971 7 25 12 22.5 122.4 935 0 9 -- Chart
1971 7 25 18 23.3 121.0 945 0 9 -- Chart
1971 7 26 00 24.0 119.5 970 0 9 -- Chart
1971 7 26 06 24.2 118.6 975 0 9 -- Chart
1971 7 26 12 25.0 117.7 980 0 9 -- Chart
1971 7 26 18 26.0 116.5 985 0 9 -- Chart
1971 7 27 00 27.5 115.5 992 0 2 -- Chart
1971 7 27 06 29.0 114.6 992 0 2 -- Chart
1971 7 27 12 29.5 114.0 995 0 2 -- Chart
Japan Meteorological Agency Best Track Data | Correction Date : 1989-06-01
< Typhoon 197117 1971 Season Typhoon 197119 >

Help